createdAt,value
2022-12-11T00:00:37.935Z,97.38
2022-12-11T00:01:37.947Z,97.69
2022-12-11T00:02:38.012Z,97.59
2022-12-11T00:03:37.928Z,97.59
2022-12-11T00:04:37.915Z,97.49
2022-12-11T00:05:37.927Z,97.80
2022-12-11T00:06:40.846Z,99.16
2022-12-11T00:07:40.857Z,99.21
2022-12-11T00:08:37.843Z,99.10
2022-12-11T00:09:37.808Z,98.89
2022-12-11T00:10:38.243Z,99.00
2022-12-11T00:11:37.812Z,98.79
2022-12-11T00:12:37.775Z,98.89
2022-12-11T00:13:37.748Z,98.64
2022-12-11T00:14:37.778Z,98.43
2022-12-11T00:15:37.739Z,98.11
2022-12-11T00:16:37.831Z,97.69
2022-12-11T00:17:37.710Z,97.59
2022-12-11T00:18:37.702Z,97.69
2022-12-11T00:19:37.667Z,97.59
2022-12-11T00:20:37.679Z,97.80
2022-12-11T00:21:37.658Z,97.91
2022-12-11T00:22:37.670Z,98.43
2022-12-11T00:23:37.609Z,98.47
2022-12-11T00:24:37.602Z,98.43
2022-12-11T00:25:37.620Z,98.22
2022-12-11T00:26:40.632Z,98.47
2022-12-11T00:27:40.601Z,98.22
2022-12-11T00:28:37.619Z,97.91
2022-12-11T00:29:37.569Z,97.42
2022-12-11T00:30:37.531Z,97.06
2022-12-11T00:31:37.582Z,96.71
2022-12-11T00:32:37.921Z,97.17
2022-12-11T00:33:37.479Z,97.17
2022-12-11T00:34:37.470Z,97.17
2022-12-11T00:35:37.476Z,97.38
2022-12-11T00:36:37.440Z,97.23
2022-12-11T00:37:37.509Z,98.22
2022-12-11T00:38:37.440Z,98.47
2022-12-11T00:39:37.442Z,98.54
2022-12-11T00:40:37.383Z,98.74
2022-12-11T00:41:37.381Z,98.85
2022-12-11T00:42:37.353Z,98.79
2022-12-11T00:43:37.341Z,99.00
2022-12-11T00:44:37.372Z,98.89
2022-12-11T00:45:37.398Z,98.47
2022-12-11T00:46:40.313Z,98.26
2022-12-11T00:47:40.315Z,98.32
2022-12-11T00:48:37.309Z,98.16
2022-12-11T00:49:37.305Z,98.05
2022-12-11T00:50:37.243Z,98.68
2022-12-11T00:51:37.270Z,98.95
2022-12-11T00:52:37.222Z,99.27
2022-12-11T00:53:37.211Z,98.95
2022-12-11T00:54:37.192Z,98.54
2022-12-11T00:55:37.234Z,98.43
2022-12-11T00:56:37.163Z,98.32
2022-12-11T00:57:37.158Z,98.22
2022-12-11T00:58:37.144Z,98.01
2022-12-11T00:59:37.131Z,97.80
2022-12-11T01:00:37.107Z,97.91
2022-12-11T01:01:37.212Z,97.91
2022-12-11T01:02:37.127Z,97.63
2022-12-11T01:03:37.076Z,97.28
2022-12-11T01:04:37.045Z,97.06
2022-12-11T01:05:37.044Z,97.06
2022-12-11T01:06:40.054Z,97.06
2022-12-11T01:07:40.035Z,97.49
2022-12-11T01:08:38.873Z,97.42
2022-12-11T01:09:37.004Z,97.69
2022-12-11T01:10:37.017Z,97.59
2022-12-11T01:11:37.126Z,97.28
2022-12-11T01:12:36.956Z,97.17
2022-12-11T01:13:36.938Z,97.17
2022-12-11T01:14:36.924Z,96.96
2022-12-11T01:15:41.214Z,96.65
2022-12-11T01:16:36.946Z,96.55
2022-12-11T01:17:36.917Z,96.55
2022-12-11T01:18:36.919Z,96.44
2022-12-11T01:19:36.858Z,96.33
2022-12-11T01:20:36.837Z,96.12
2022-12-11T01:21:36.835Z,96.06
2022-12-11T01:22:36.820Z,96.02
2022-12-11T01:23:36.803Z,96.17
2022-12-11T01:24:36.827Z,96.27
2022-12-11T01:25:36.775Z,96.23
2022-12-11T01:26:39.758Z,96.33
2022-12-11T01:27:39.779Z,96.44
2022-12-11T01:28:36.738Z,96.27
2022-12-11T01:29:36.879Z,96.12
2022-12-11T01:30:36.780Z,96.12
2022-12-11T01:31:36.687Z,96.23
2022-12-11T01:32:36.676Z,96.65
2022-12-11T01:33:36.657Z,96.86
2022-12-11T01:34:36.658Z,96.75
2022-12-11T01:35:36.661Z,96.65
2022-12-11T01:36:36.618Z,96.44
2022-12-11T01:37:36.598Z,96.17
2022-12-11T01:38:36.592Z,96.23
2022-12-11T01:39:36.589Z,96.02
2022-12-11T01:40:36.599Z,95.81
2022-12-11T01:41:36.558Z,96.23
2022-12-11T01:42:36.528Z,96.06
2022-12-11T01:43:36.532Z,96.12
2022-12-11T01:44:36.510Z,95.86
2022-12-11T01:45:36.513Z,95.54
2022-12-11T01:46:39.542Z,95.29
2022-12-11T01:47:39.491Z,95.18
2022-12-11T01:48:41.954Z,94.97
2022-12-11T01:49:37.439Z,94.76
2022-12-11T01:50:36.431Z,94.76
2022-12-11T01:51:36.422Z,94.87
2022-12-11T01:52:36.444Z,94.87
2022-12-11T01:53:36.394Z,94.76
2022-12-11T01:54:36.378Z,94.81
2022-12-11T01:55:36.371Z,94.56
2022-12-11T01:56:36.378Z,94.56
2022-12-11T01:57:36.328Z,94.45
2022-12-11T01:58:36.352Z,94.13
2022-12-11T01:59:36.314Z,94.03
2022-12-11T02:00:36.292Z,93.82
2022-12-11T02:01:36.371Z,93.61
2022-12-11T02:02:36.328Z,93.82
2022-12-11T02:03:36.303Z,93.71
2022-12-11T02:04:36.241Z,93.61
2022-12-11T02:05:36.223Z,93.30
2022-12-11T02:06:39.212Z,93.08
2022-12-11T02:07:39.230Z,92.88
2022-12-11T02:08:36.185Z,92.77
2022-12-11T02:09:36.203Z,92.57
2022-12-11T02:10:36.173Z,92.46
2022-12-11T02:11:36.143Z,92.35
2022-12-11T02:12:36.134Z,92.25
2022-12-11T02:13:36.120Z,92.35
2022-12-11T02:14:36.162Z,92.14
2022-12-11T02:15:36.095Z,92.35
2022-12-11T02:16:36.156Z,92.35
2022-12-11T02:17:36.054Z,92.35
2022-12-11T02:18:36.054Z,92.57
2022-12-11T02:19:36.034Z,92.71
2022-12-11T02:20:36.052Z,92.50
2022-12-11T02:21:36.014Z,92.40
2022-12-11T02:22:35.993Z,92.61
2022-12-11T02:23:35.997Z,92.61
2022-12-11T02:24:35.966Z,92.50
2022-12-11T02:25:35.975Z,92.71
2022-12-11T02:26:38.986Z,92.82
2022-12-11T02:27:38.945Z,92.82
2022-12-11T02:28:35.915Z,92.71
2022-12-11T02:29:35.904Z,92.50
2022-12-11T02:30:35.888Z,92.40
2022-12-11T02:31:35.959Z,92.19
2022-12-11T02:32:35.887Z,92.08
2022-12-11T02:33:35.858Z,91.98
2022-12-11T02:34:35.828Z,91.87
2022-12-11T02:35:35.816Z,91.77
2022-12-11T02:36:35.819Z,92.08
2022-12-11T02:37:35.814Z,91.98
2022-12-11T02:38:35.787Z,91.98
2022-12-11T02:39:35.765Z,91.87
2022-12-11T02:40:35.776Z,91.77
2022-12-11T02:41:35.746Z,91.56
2022-12-11T02:42:35.747Z,91.35
2022-12-11T02:43:35.748Z,91.14
2022-12-11T02:44:35.714Z,91.14
2022-12-11T02:45:35.781Z,91.03
2022-12-11T02:46:38.669Z,90.93
2022-12-11T02:47:38.708Z,90.93
2022-12-11T02:48:35.650Z,90.93
2022-12-11T02:49:35.619Z,90.83
2022-12-11T02:50:35.633Z,90.72
2022-12-11T02:51:35.616Z,90.51
2022-12-11T02:52:35.590Z,90.61
2022-12-11T02:53:35.608Z,91.03
2022-12-11T02:54:35.558Z,91.24
2022-12-11T02:55:35.539Z,91.56
2022-12-11T02:56:35.560Z,91.56
2022-12-11T02:57:35.508Z,91.35
2022-12-11T02:58:35.519Z,91.24
2022-12-11T02:59:35.515Z,91.35
2022-12-11T03:00:35.487Z,91.87
2022-12-11T03:01:35.519Z,92.13
2022-12-11T03:02:35.571Z,92.44
2022-12-11T03:03:35.469Z,92.50
2022-12-11T03:04:35.441Z,92.44
2022-12-11T03:05:35.410Z,92.71
2022-12-11T03:06:38.418Z,92.54
2022-12-11T03:07:38.412Z,92.54
2022-12-11T03:08:35.397Z,92.86
2022-12-11T03:09:35.361Z,92.61
2022-12-11T03:10:35.350Z,92.54
2022-12-11T03:11:35.342Z,92.44
2022-12-11T03:12:35.328Z,92.08
2022-12-11T03:13:35.339Z,91.77
2022-12-11T03:14:35.314Z,91.46
2022-12-11T03:15:35.303Z,91.24
2022-12-11T03:16:35.335Z,91.35
2022-12-11T03:17:35.260Z,91.46
2022-12-11T03:18:35.387Z,91.77
2022-12-11T03:19:35.242Z,91.91
2022-12-11T03:20:35.204Z,92.19
2022-12-11T03:21:42.175Z,92.33
2022-12-11T03:22:35.166Z,92.19
2022-12-11T03:23:35.143Z,92.08
2022-12-11T03:24:35.203Z,92.33
2022-12-11T03:25:35.122Z,92.44
2022-12-11T03:26:38.115Z,92.50
2022-12-11T03:27:38.119Z,92.29
2022-12-11T03:28:35.089Z,92.08
2022-12-11T03:29:35.079Z,92.13
2022-12-11T03:30:35.129Z,91.87
2022-12-11T03:31:35.045Z,91.87
2022-12-11T03:32:35.046Z,91.66
2022-12-11T03:33:35.014Z,91.66
2022-12-11T03:34:34.998Z,91.56
2022-12-11T03:35:35.051Z,91.24
2022-12-11T03:36:35.008Z,91.09
2022-12-11T03:37:34.966Z,91.56
2022-12-11T03:38:34.948Z,91.77
2022-12-11T03:39:34.996Z,91.77
2022-12-11T03:40:34.918Z,91.87
2022-12-11T03:41:34.914Z,91.87
2022-12-11T03:42:34.895Z,91.66
2022-12-11T03:43:34.886Z,92.29
2022-12-11T03:44:34.879Z,92.29
2022-12-11T03:45:34.905Z,92.19
2022-12-11T03:46:37.840Z,92.76
2022-12-11T03:47:37.829Z,92.65
2022-12-11T03:48:34.809Z,92.33
2022-12-11T03:49:34.788Z,91.91
2022-12-11T03:50:34.789Z,91.60
2022-12-11T03:51:34.789Z,91.66
2022-12-11T03:52:34.752Z,91.46
2022-12-11T03:53:34.737Z,91.66
2022-12-11T03:54:34.738Z,91.24
2022-12-11T03:55:34.714Z,91.24
2022-12-11T03:56:34.731Z,91.14
2022-12-11T03:57:34.722Z,90.97
2022-12-11T03:58:34.671Z,90.83
2022-12-11T03:59:34.657Z,90.83
2022-12-11T04:00:34.649Z,90.83
2022-12-11T04:01:34.713Z,90.61
2022-12-11T04:02:34.618Z,90.41
2022-12-11T04:03:34.611Z,90.41
2022-12-11T04:04:35.416Z,91.03
2022-12-11T04:05:34.583Z,91.14
2022-12-11T04:06:37.612Z,91.14
2022-12-11T04:07:37.576Z,91.24
2022-12-11T04:08:34.530Z,91.46
2022-12-11T04:09:34.518Z,91.24
2022-12-11T04:10:34.501Z,91.87
2022-12-11T04:11:34.491Z,92.08
2022-12-11T04:12:34.501Z,91.87
2022-12-11T04:13:34.460Z,91.77
2022-12-11T04:14:34.458Z,91.66
2022-12-11T04:15:34.466Z,91.46
2022-12-11T04:16:34.451Z,91.35
2022-12-11T04:17:34.411Z,91.14
2022-12-11T04:18:34.392Z,91.14
2022-12-11T04:19:34.383Z,91.46
2022-12-11T04:20:34.372Z,91.66
2022-12-11T04:21:39.300Z,91.87
2022-12-11T04:22:35.343Z,92.08
2022-12-11T04:23:34.323Z,92.19
2022-12-11T04:24:34.313Z,92.40
2022-12-11T04:25:34.293Z,92.44
2022-12-11T04:26:37.324Z,92.40
2022-12-11T04:27:37.283Z,92.19
2022-12-11T04:28:34.252Z,92.19
2022-12-11T04:29:34.271Z,92.08
2022-12-11T04:30:34.620Z,92.19
2022-12-11T04:31:34.262Z,92.71
2022-12-11T04:32:34.261Z,92.50
2022-12-11T04:33:34.195Z,92.61
2022-12-11T04:34:34.173Z,92.50
2022-12-11T04:35:34.154Z,92.50
2022-12-11T04:36:34.154Z,92.40
2022-12-11T04:37:34.125Z,92.19
2022-12-11T04:38:34.144Z,92.02
2022-12-11T04:39:34.104Z,91.98
2022-12-11T04:40:34.093Z,91.77
2022-12-11T04:41:34.078Z,91.66
2022-12-11T04:42:34.105Z,92.08
2022-12-11T04:43:34.044Z,92.19
2022-12-11T04:44:34.035Z,92.40
2022-12-11T04:45:34.035Z,92.40
2022-12-11T04:46:37.040Z,92.19
2022-12-11T04:47:37.040Z,91.98
2022-12-11T04:48:33.985Z,91.77
2022-12-11T04:49:34.004Z,91.46
2022-12-11T04:50:33.955Z,91.50
2022-12-11T04:51:33.937Z,91.35
2022-12-11T04:52:33.935Z,91.77
2022-12-11T04:53:33.916Z,91.91
2022-12-11T04:54:33.927Z,91.87
2022-12-11T04:55:33.898Z,91.56
2022-12-11T04:56:33.877Z,91.77
2022-12-11T04:57:33.860Z,92.08
2022-12-11T04:58:33.850Z,92.40
2022-12-11T04:59:33.856Z,92.29
2022-12-11T05:00:33.846Z,92.29
2022-12-11T05:01:33.870Z,92.40
2022-12-11T05:02:33.816Z,92.08
2022-12-11T05:03:33.777Z,92.19
2022-12-11T05:04:33.778Z,92.19
2022-12-11T05:05:33.817Z,92.40
2022-12-11T05:06:36.739Z,92.50
2022-12-11T05:07:36.738Z,92.29
2022-12-11T05:08:33.733Z,92.08
2022-12-11T05:09:33.699Z,92.19
2022-12-11T05:10:33.689Z,92.19
2022-12-11T05:11:33.698Z,91.87
2022-12-11T05:12:33.668Z,91.71
2022-12-11T05:13:33.646Z,91.35
2022-12-11T05:14:33.638Z,91.08
2022-12-11T05:15:33.618Z,91.03
2022-12-11T05:16:33.677Z,90.93
2022-12-11T05:17:33.589Z,90.72
2022-12-11T05:18:33.579Z,90.93
2022-12-11T05:19:33.585Z,90.61
2022-12-11T05:20:33.550Z,90.61
2022-12-11T05:21:35.309Z,90.51
2022-12-11T05:22:33.563Z,90.41
2022-12-11T05:23:33.510Z,90.41
2022-12-11T05:24:33.501Z,90.41
2022-12-11T05:25:33.489Z,90.30
2022-12-11T05:26:36.517Z,90.30
2022-12-11T05:27:36.471Z,90.30
2022-12-11T05:28:33.448Z,90.30
2022-12-11T05:29:33.431Z,90.30
2022-12-11T05:30:33.421Z,90.09
2022-12-11T05:31:33.425Z,90.09
2022-12-11T05:32:33.424Z,90.09
2022-12-11T05:33:33.382Z,90.30
2022-12-11T05:34:33.361Z,90.30
2022-12-11T05:35:33.351Z,89.98
2022-12-11T05:36:33.515Z,89.88
2022-12-11T05:37:33.321Z,89.88
2022-12-11T05:38:33.317Z,89.67
2022-12-11T05:39:33.302Z,89.57
2022-12-11T05:40:33.282Z,89.57
2022-12-11T05:41:33.270Z,89.47
2022-12-11T05:42:33.327Z,89.47
2022-12-11T05:43:33.240Z,89.72
2022-12-11T05:44:33.233Z,89.92
2022-12-11T05:45:33.219Z,90.09
2022-12-11T05:46:36.248Z,89.88
2022-12-11T05:47:36.242Z,89.98
2022-12-11T05:48:33.172Z,89.98
2022-12-11T05:49:33.176Z,89.78
2022-12-11T05:50:33.143Z,89.50
2022-12-11T05:51:33.133Z,89.50
2022-12-11T05:52:33.129Z,89.61
2022-12-11T05:53:33.133Z,89.50
2022-12-11T05:54:33.102Z,89.92
2022-12-11T05:55:33.075Z,89.67
2022-12-11T05:56:33.094Z,89.67
2022-12-11T05:57:33.045Z,90.03
2022-12-11T05:58:33.048Z,90.66
2022-12-11T05:59:33.046Z,90.66
2022-12-11T06:00:36.200Z,90.72
2022-12-11T06:01:33.024Z,90.72
2022-12-11T06:02:33.106Z,91.08
2022-12-11T06:03:32.966Z,91.43
2022-12-11T06:04:32.975Z,91.71
2022-12-11T06:05:32.951Z,91.71
2022-12-11T06:06:35.925Z,91.39
2022-12-11T06:07:35.962Z,91.28
2022-12-11T06:08:32.898Z,91.18
2022-12-11T06:09:32.945Z,90.87
2022-12-11T06:10:32.873Z,90.87
2022-12-11T06:11:32.857Z,90.80
2022-12-11T06:12:32.849Z,90.45
2022-12-11T06:13:32.837Z,90.87
2022-12-11T06:14:32.816Z,90.97
2022-12-11T06:15:32.844Z,90.76
2022-12-11T06:16:32.948Z,90.55
2022-12-11T06:17:32.777Z,90.34
2022-12-11T06:18:32.768Z,90.45
2022-12-11T06:19:36.725Z,90.23
2022-12-11T06:20:32.769Z,89.92
2022-12-11T06:21:32.770Z,89.61
2022-12-11T06:22:32.711Z,89.82
2022-12-11T06:23:32.704Z,89.82
2022-12-11T06:24:32.693Z,89.72
2022-12-11T06:25:32.678Z,89.72
2022-12-11T06:26:35.687Z,89.61
2022-12-11T06:27:35.775Z,89.72
2022-12-11T06:28:32.643Z,89.50
2022-12-11T06:29:32.626Z,89.65
2022-12-11T06:30:38.412Z,89.44
2022-12-11T06:31:33.661Z,89.54
2022-12-11T06:32:32.584Z,89.97
2022-12-11T06:33:32.600Z,90.07
2022-12-11T06:34:32.580Z,90.07
2022-12-11T06:35:35.050Z,90.13
2022-12-11T06:36:33.538Z,90.34
2022-12-11T06:37:32.517Z,90.55
2022-12-11T06:38:32.500Z,90.66
2022-12-11T06:39:32.549Z,90.55
2022-12-11T06:40:32.470Z,90.55
2022-12-11T06:41:32.461Z,90.45
2022-12-11T06:42:32.449Z,90.34
2022-12-11T06:43:32.440Z,90.34
2022-12-11T06:44:32.436Z,90.45
2022-12-11T06:45:32.490Z,90.45
2022-12-11T06:46:35.393Z,90.66
2022-12-11T06:47:35.391Z,90.55
2022-12-11T06:48:32.394Z,90.76
2022-12-11T06:49:32.351Z,90.97
2022-12-11T06:50:32.342Z,91.08
2022-12-11T06:51:32.353Z,90.87
2022-12-11T06:52:32.317Z,91.28
2022-12-11T06:53:32.303Z,91.18
2022-12-11T06:54:32.284Z,90.97
2022-12-11T06:55:32.281Z,90.66
2022-12-11T06:56:32.298Z,90.49
2022-12-11T06:57:32.248Z,90.23
2022-12-11T06:58:32.233Z,90.13
2022-12-11T06:59:32.221Z,90.13
2022-12-11T07:00:32.201Z,90.03
2022-12-11T07:01:32.262Z,89.97
2022-12-11T07:02:32.220Z,89.92
2022-12-11T07:03:32.175Z,89.92
2022-12-11T07:04:32.154Z,89.92
2022-12-11T07:05:32.142Z,89.72
2022-12-11T07:06:35.161Z,89.82
2022-12-11T07:07:35.155Z,89.92
2022-12-11T07:08:32.126Z,89.82
2022-12-11T07:09:32.134Z,89.61
2022-12-11T07:10:32.075Z,89.72
2022-12-11T07:11:32.064Z,89.72
2022-12-11T07:12:32.054Z,89.72
2022-12-11T07:13:32.079Z,89.75
2022-12-11T07:14:32.024Z,89.97
2022-12-11T07:15:34.373Z,90.17
2022-12-11T07:16:32.068Z,90.28
2022-12-11T07:17:32.165Z,90.17
2022-12-11T07:18:31.976Z,89.75
2022-12-11T07:19:31.967Z,89.86
2022-12-11T07:20:31.954Z,89.86
2022-12-11T07:21:31.943Z,89.75
2022-12-11T07:22:31.970Z,89.65
2022-12-11T07:23:31.945Z,89.86
2022-12-11T07:24:31.905Z,89.82
2022-12-11T07:25:31.925Z,89.92
2022-12-11T07:26:34.893Z,89.82
2022-12-11T07:27:34.884Z,89.82
2022-12-11T07:28:31.857Z,90.13
2022-12-11T07:29:31.912Z,90.17
2022-12-11T07:30:31.827Z,90.38
2022-12-11T07:31:31.906Z,90.59
2022-12-11T07:32:31.953Z,90.87
2022-12-11T07:33:31.788Z,91.39
2022-12-11T07:34:31.776Z,91.53
2022-12-11T07:35:31.801Z,91.28
2022-12-11T07:36:31.747Z,91.85
2022-12-11T07:37:31.767Z,91.85
2022-12-11T07:38:31.727Z,91.64
2022-12-11T07:39:31.715Z,91.33
2022-12-11T07:40:31.720Z,91.33
2022-12-11T07:41:31.687Z,91.33
2022-12-11T07:42:31.720Z,91.18
2022-12-11T07:43:31.658Z,91.18
2022-12-11T07:44:31.648Z,91.50
2022-12-11T07:45:31.664Z,91.28
2022-12-11T07:46:34.636Z,91.28
2022-12-11T07:47:34.666Z,91.71
2022-12-11T07:48:31.628Z,91.71
2022-12-11T07:49:31.590Z,91.60
2022-12-11T07:50:35.202Z,91.81
2022-12-11T07:51:32.562Z,92.02
2022-12-11T07:52:31.547Z,92.69
2022-12-11T07:53:31.559Z,92.80
2022-12-11T07:54:31.519Z,93.32
2022-12-11T07:55:31.511Z,93.74
2022-12-11T07:56:31.493Z,94.37
2022-12-11T07:57:31.491Z,94.26
2022-12-11T07:58:31.639Z,94.58
2022-12-11T07:59:31.460Z,94.68
2022-12-11T08:00:31.441Z,95.52
2022-12-11T08:01:31.483Z,96.15
2022-12-11T08:02:37.029Z,95.84
2022-12-11T08:03:32.450Z,95.73
2022-12-11T08:04:31.391Z,95.94
2022-12-11T08:05:31.404Z,96.25
2022-12-11T08:06:34.369Z,96.25
2022-12-11T08:07:34.383Z,96.15
2022-12-11T08:08:31.347Z,96.25
2022-12-11T08:09:31.461Z,96.04
2022-12-11T08:10:31.340Z,95.68
2022-12-11T08:11:31.312Z,95.68
2022-12-11T08:12:31.295Z,95.48
2022-12-11T08:13:31.312Z,95.37
2022-12-11T08:14:31.294Z,95.48
2022-12-11T08:15:31.296Z,95.79
2022-12-11T08:16:31.365Z,96.11
2022-12-11T08:17:35.301Z,96.25
2022-12-11T08:18:32.213Z,96.36
2022-12-11T08:19:31.223Z,96.31
2022-12-11T08:20:31.230Z,96.11
2022-12-11T08:21:31.179Z,96.04
2022-12-11T08:22:31.161Z,96.15
2022-12-11T08:23:31.153Z,95.90
2022-12-11T08:24:31.132Z,96.00
2022-12-11T08:25:31.145Z,96.21
2022-12-11T08:26:34.133Z,97.36
2022-12-11T08:27:34.120Z,97.68
2022-12-11T08:28:31.113Z,98.52
2022-12-11T08:29:31.072Z,98.72
2022-12-11T08:30:31.093Z,98.94
2022-12-11T08:31:31.042Z,98.83
2022-12-11T08:32:31.035Z,98.52
2022-12-11T08:33:31.054Z,98.10
2022-12-11T08:34:31.003Z,97.99
2022-12-11T08:35:30.993Z,98.10
2022-12-11T08:36:30.977Z,98.31
2022-12-11T08:37:30.967Z,98.62
2022-12-11T08:38:30.944Z,99.15
2022-12-11T08:39:30.995Z,99.88
2022-12-11T08:40:30.926Z,99.99
2022-12-11T08:41:30.915Z,99.99
2022-12-11T08:42:30.899Z,99.99
2022-12-11T08:43:30.894Z,99.99
2022-12-11T08:44:30.878Z,99.99
2022-12-11T08:45:30.885Z,99.99
2022-12-11T08:46:33.904Z,99.99
2022-12-11T08:47:33.855Z,99.99
2022-12-11T08:48:30.824Z,99.99
2022-12-11T08:49:34.340Z,99.99
2022-12-11T08:50:30.849Z,99.99
2022-12-11T08:51:30.785Z,99.99
2022-12-11T08:52:30.767Z,99.99
2022-12-11T08:53:30.758Z,99.99
2022-12-11T08:54:30.745Z,99.99
2022-12-11T08:55:30.741Z,99.99
2022-12-11T08:56:30.747Z,99.99
2022-12-11T08:57:30.706Z,99.99
2022-12-11T08:58:30.689Z,99.99
2022-12-11T08:59:30.681Z,99.99
2022-12-11T09:00:30.668Z,99.99
2022-12-11T09:01:30.709Z,99.99
2022-12-11T09:02:30.686Z,99.99
2022-12-11T09:03:30.630Z,99.99
2022-12-11T09:04:30.608Z,99.99
2022-12-11T09:05:30.603Z,99.99
2022-12-11T09:06:33.616Z,99.99
2022-12-11T09:07:33.590Z,99.99
2022-12-11T09:08:30.624Z,99.99
2022-12-11T09:09:30.548Z,99.99
2022-12-11T09:10:30.540Z,99.99
2022-12-11T09:11:30.528Z,99.99
2022-12-11T09:12:30.535Z,99.99
2022-12-11T09:13:30.499Z,99.99
2022-12-11T09:14:30.479Z,99.99
2022-12-11T09:15:30.573Z,99.99
2022-12-11T09:16:30.460Z,99.99
2022-12-11T09:17:30.469Z,99.99
2022-12-11T09:18:30.441Z,99.99
2022-12-11T09:19:32.342Z,99.99
2022-12-11T09:20:30.409Z,99.99
2022-12-11T09:21:30.403Z,99.99
2022-12-11T09:22:30.405Z,99.99
2022-12-11T09:23:30.401Z,99.99
2022-12-11T09:24:30.408Z,99.99
2022-12-11T09:25:30.342Z,99.99
2022-12-11T09:26:33.321Z,99.99
2022-12-11T09:27:33.334Z,99.99
2022-12-11T09:28:30.300Z,99.99
2022-12-11T09:29:30.290Z,99.99
2022-12-11T09:30:30.376Z,99.99
2022-12-11T09:31:30.261Z,99.99
2022-12-11T09:32:30.250Z,99.99
2022-12-11T09:33:30.233Z,99.99
2022-12-11T09:34:30.219Z,99.99
2022-12-11T09:35:30.212Z,99.99
2022-12-11T09:36:30.232Z,99.99
2022-12-11T09:37:30.184Z,99.99
2022-12-11T09:38:30.162Z,99.99
2022-12-11T09:39:30.162Z,99.99
2022-12-11T09:40:30.141Z,99.99
2022-12-11T09:41:30.132Z,99.99
2022-12-11T09:42:30.263Z,99.99
2022-12-11T09:43:30.102Z,99.99
2022-12-11T09:44:30.083Z,99.99
2022-12-11T09:45:30.078Z,99.99
2022-12-11T09:46:34.390Z,99.99
2022-12-11T09:47:33.083Z,99.99
2022-12-11T09:48:30.033Z,99.99
2022-12-11T09:49:30.025Z,99.99
2022-12-11T09:50:30.014Z,99.99
2022-12-11T09:51:30.007Z,99.99
2022-12-11T09:52:30.143Z,99.99
2022-12-11T09:53:34.141Z,99.99
2022-12-11T09:54:29.964Z,99.99
2022-12-11T09:55:29.945Z,99.99
2022-12-11T09:56:29.935Z,99.99
2022-12-11T09:57:29.924Z,99.99
2022-12-11T09:58:29.934Z,99.99
2022-12-11T09:59:29.904Z,99.99
2022-12-11T10:00:29.913Z,99.99
2022-12-11T10:01:29.943Z,99.99
2022-12-11T10:02:29.885Z,99.99
2022-12-11T10:03:29.846Z,99.99
2022-12-11T10:04:29.826Z,99.99
2022-12-11T10:05:29.845Z,99.99
2022-12-11T10:06:32.809Z,99.99
2022-12-11T10:07:32.857Z,99.99
2022-12-11T10:08:29.831Z,99.99
2022-12-11T10:09:29.766Z,99.99
2022-12-11T10:10:29.751Z,99.99
2022-12-11T10:11:29.737Z,99.99
2022-12-11T10:12:29.725Z,99.99
2022-12-11T10:13:29.770Z,99.99
2022-12-11T10:14:29.715Z,99.99
2022-12-11T10:15:29.747Z,99.99
2022-12-11T10:16:29.669Z,99.99
2022-12-11T10:17:29.658Z,99.99
2022-12-11T10:18:29.650Z,99.99
2022-12-11T10:19:29.657Z,99.99
2022-12-11T10:20:29.626Z,99.99
2022-12-11T10:21:29.598Z,99.99
2022-12-11T10:22:29.590Z,99.99
2022-12-11T10:23:29.599Z,99.99
2022-12-11T10:25:07.604Z,99.99
2022-12-11T10:25:30.546Z,99.99
2022-12-11T10:26:32.540Z,99.99
2022-12-11T10:27:32.529Z,99.99
2022-12-11T10:28:29.557Z,99.99
2022-12-11T10:29:29.489Z,99.99
2022-12-11T10:30:34.325Z,99.99
2022-12-11T10:31:30.577Z,99.99
2022-12-11T10:32:29.458Z,99.99
2022-12-11T10:33:29.439Z,99.99
2022-12-11T10:34:29.449Z,99.99
2022-12-11T10:35:29.409Z,99.99
2022-12-11T10:36:29.431Z,99.99
2022-12-11T10:37:29.393Z,99.99
2022-12-11T10:38:29.393Z,99.99
2022-12-11T10:39:29.350Z,99.99
2022-12-11T10:40:29.373Z,99.99
2022-12-11T10:41:29.332Z,99.99
2022-12-11T10:42:29.310Z,99.99
2022-12-11T10:43:29.302Z,99.99
2022-12-11T10:44:29.290Z,99.99
2022-12-11T10:45:29.272Z,99.99
2022-12-11T10:46:32.345Z,99.99
2022-12-11T10:47:32.255Z,99.99
2022-12-11T10:48:29.244Z,99.99
2022-12-11T10:49:29.222Z,99.99
2022-12-11T10:50:29.202Z,99.99
2022-12-11T10:51:29.220Z,99.99
2022-12-11T10:52:29.184Z,99.99
2022-12-11T10:53:29.162Z,99.99
2022-12-11T10:54:29.155Z,99.99
2022-12-11T10:55:29.141Z,99.99
2022-12-11T10:56:29.122Z,99.99
2022-12-11T10:57:29.145Z,99.99
2022-12-11T10:58:29.106Z,99.99
2022-12-11T10:59:29.092Z,99.99
2022-12-11T11:00:29.075Z,99.99
2022-12-11T11:01:29.109Z,99.99
2022-12-11T11:02:29.114Z,99.99
2022-12-11T11:03:29.055Z,99.99
2022-12-11T11:04:29.015Z,99.99
2022-12-11T11:05:28.996Z,99.99
2022-12-11T11:06:31.993Z,99.99
2022-12-11T11:07:32.005Z,99.99
2022-12-11T11:08:29.053Z,99.99
2022-12-11T11:09:28.945Z,99.99
2022-12-11T11:10:28.940Z,99.99
2022-12-11T11:11:28.914Z,99.99
2022-12-11T11:12:28.934Z,99.99
2022-12-11T11:13:28.898Z,99.99
2022-12-11T11:14:28.924Z,99.99
2022-12-11T11:15:28.864Z,99.99
2022-12-11T11:16:28.906Z,99.99
2022-12-11T11:17:33.799Z,99.99
2022-12-11T11:18:29.865Z,99.99
2022-12-11T11:19:28.815Z,99.99
2022-12-11T11:20:28.797Z,99.99
2022-12-11T11:21:28.789Z,99.99
2022-12-11T11:22:28.777Z,99.99
2022-12-11T11:23:28.803Z,99.99
2022-12-11T11:24:28.749Z,99.99
2022-12-11T11:25:28.759Z,99.99
2022-12-11T11:27:04.222Z,99.99
2022-12-11T11:27:32.735Z,99.99
2022-12-11T11:28:28.696Z,99.99
2022-12-11T11:29:28.726Z,99.99
2022-12-11T11:30:28.681Z,99.99
2022-12-11T11:31:28.703Z,99.99
2022-12-11T11:32:28.638Z,99.99
2022-12-11T11:33:28.628Z,99.99
2022-12-11T11:34:28.625Z,99.99
2022-12-11T11:35:28.648Z,99.99
2022-12-11T11:36:28.587Z,99.99
2022-12-11T11:37:28.583Z,99.99
2022-12-11T11:38:28.567Z,99.99
2022-12-11T11:39:28.549Z,99.99
2022-12-11T11:40:28.539Z,99.99
2022-12-11T11:41:28.560Z,99.99
2022-12-11T11:42:28.509Z,99.99
2022-12-11T11:43:28.528Z,99.99
2022-12-11T11:44:28.509Z,99.99
2022-12-11T11:45:28.478Z,99.99
2022-12-11T11:46:31.526Z,99.99
2022-12-11T11:47:31.488Z,99.99
2022-12-11T11:48:28.460Z,99.99
2022-12-11T11:49:28.450Z,99.99
2022-12-11T11:50:28.400Z,99.99
2022-12-11T11:51:28.408Z,99.99
2022-12-11T11:52:28.391Z,99.99
2022-12-11T11:53:28.371Z,99.99
2022-12-11T11:54:28.381Z,99.99
2022-12-11T11:55:28.345Z,99.99
2022-12-11T11:56:28.320Z,99.99
2022-12-11T11:57:28.331Z,99.99
2022-12-11T11:58:28.299Z,99.99
2022-12-11T11:59:28.330Z,99.99
2022-12-11T12:00:33.330Z,99.99
2022-12-11T12:01:29.262Z,99.99
2022-12-11T12:02:28.282Z,99.99
2022-12-11T12:03:28.244Z,99.99
2022-12-11T12:04:28.242Z,99.99
2022-12-11T12:05:28.231Z,99.99
2022-12-11T12:06:31.198Z,99.99
2022-12-11T12:07:31.217Z,99.99
2022-12-11T12:08:28.259Z,99.99
2022-12-11T12:09:28.178Z,99.99
2022-12-11T12:10:28.143Z,99.99
2022-12-11T12:11:28.122Z,99.99
2022-12-11T12:12:33.658Z,99.99
2022-12-11T12:14:51.132Z,99.99
2022-12-11T12:15:29.077Z,99.99
2022-12-11T12:17:29.102Z,99.99
2022-12-11T12:18:28.033Z,99.99
2022-12-11T12:19:28.023Z,99.99
2022-12-11T12:20:28.016Z,99.99
2022-12-11T12:21:27.992Z,99.99
2022-12-11T12:22:27.975Z,99.99
2022-12-11T12:23:31.947Z,99.99
2022-12-11T12:24:28.956Z,99.99
2022-12-11T12:25:27.957Z,99.99
2022-12-11T12:26:30.953Z,99.99
2022-12-11T12:27:51.507Z,99.99
2022-12-11T12:28:28.989Z,99.99
2022-12-11T12:29:27.884Z,99.99
2022-12-11T12:30:27.875Z,99.99
2022-12-11T12:31:27.875Z,99.99
2022-12-11T12:32:27.855Z,99.99
2022-12-11T12:33:27.834Z,99.99
2022-12-11T12:34:27.845Z,99.99
2022-12-11T12:35:27.825Z,99.99
2022-12-11T12:36:27.795Z,99.99
2022-12-11T12:37:27.778Z,99.99
2022-12-11T12:38:27.778Z,99.99
2022-12-11T12:39:27.767Z,99.99
2022-12-11T12:40:27.736Z,99.99
2022-12-11T12:41:27.770Z,99.99
2022-12-11T12:42:27.708Z,99.99
2022-12-11T12:43:27.697Z,99.99
2022-12-11T12:44:27.681Z,99.99
2022-12-11T12:45:27.701Z,99.99
2022-12-11T12:46:30.818Z,99.99
2022-12-11T12:47:30.657Z,99.99
2022-12-11T12:48:27.636Z,99.99
2022-12-11T12:49:27.615Z,99.99
2022-12-11T12:50:27.601Z,99.99
2022-12-11T12:51:27.590Z,99.99
2022-12-11T12:52:27.608Z,99.99
2022-12-11T12:53:27.558Z,99.99
2022-12-11T12:54:27.548Z,99.99